This is the latest recevied weather packets stored in our database for station/object dl1wer-13. If no packets are shown the sender has not sent any weather packets the latest 1 day(s).
| Time | Temp. | Humidity | Pressure | Rain* | Wind** | Luminosity | Snow |
|---|---|---|---|---|---|---|---|
| 1836274398 | 12.22° C | 99% | 1048.4 hPa | 0 mm | 0.45 m/s, 348° | - | - |
| 1836274248 | 12.22° C | 99% | 1048.1 hPa | 0 mm | 0.45 m/s, 343° | - | - |
| 1778019622 | 11.11° C | 93% | 1035.6 hPa | 0 mm | 0.89 m/s, 323° | - | - |
| 1778019022 | 11.67° C | 92% | 1035.6 hPa | 0 mm | 0.89 m/s, 149° | - | - |
| 1778018426 | 11.67° C | 92% | 1035.5 hPa | 0 mm | 0.89 m/s, 224° | - | - |
| 1778017823 | 11.67° C | 92% | 1035.3 hPa | 0 mm | 0.89 m/s, 335° | - | - |
| 1778017223 | 11.67° C | 91% | 1035.5 hPa | 0 mm | 0.89 m/s, 326° | - | - |
| 1778016622 | 11.67° C | 91% | 1035.3 hPa | 0.25 mm | 0.89 m/s, 323° | - | - |
| 1778016023 | 11.67° C | 90% | 1035.2 hPa | 0.25 mm | 1.34 m/s, 324° | - | - |
| 1778015423 | 11.67° C | 90% | 1035.3 hPa | 0.51 mm | 0.89 m/s, 289° | - | - |
| 1778014823 | 11.67° C | 90% | 1035.5 hPa | 0.51 mm | 0.89 m/s, 296° | - | - |
| 1778014222 | 12.22° C | 90% | 1035.4 hPa | 0.51 mm | 0.45 m/s, 274° | - | - |
| 1778013623 | 12.22° C | 88% | 1035.5 hPa | 0.51 mm | 0.89 m/s, 209° | - | - |
| 1778013023 | 12.22° C | 86% | 1035.5 hPa | 0.25 mm | 1.34 m/s, 322° | - | - |
| 1778012422 | 13.33° C | 78% | 1035.6 hPa | 0.25 mm | 1.79 m/s, 269° | - | - |
| 1778011823 | 13.89° C | 75% | 1035.6 hPa | 0 mm | 1.34 m/s, 349° | - | - |
| 1778011222 | 13.89° C | 72% | 1035.4 hPa | 0 mm | 2.24 m/s, 305° | - | - |
| 1778010622 | 14.44° C | 70% | 1035.4 hPa | 0 mm | 2.68 m/s, 265° | - | - |
| 1778010022 | 14.44° C | 73% | 1035.2 hPa | 0 mm | 1.34 m/s, 181° | - | - |
| 1778009422 | 14.44° C | 74% | 1035 hPa | 0 mm | 0.89 m/s, 260° | - | - |
| 1778008822 | 14.44° C | 75% | 1034.9 hPa | 0 mm | 0.89 m/s, 282° | - | - |
| 1778008222 | 14.44° C | 76% | 1034.3 hPa | 0 mm | 0 m/s | - | - |
| 1778007622 | 14.44° C | 76% | 1034.5 hPa | 0 mm | 0.45 m/s, 159° | - | - |
| 1778007022 | 14.44° C | 76% | 1034.2 hPa | 0 mm | 0 m/s | - | - |
| 1778006422 | 14.44° C | 75% | 1034.2 hPa | 0 mm | 0 m/s | - | - |
* Rain latest hour (hover to see other rain measurements)
** Current wind speed in m/s (hover to see current wind gust speed)